Archival Weather

Chicago O'Hare International

Chicago, Illinois (KORD)

Report from: Sunday, December 4, 2022 10:51 PM CST
Current time: Friday, June 14, 2024 8:10 AM CDT

Current weather – Weather history – Daily summaries
Weather forecast

Temperature0.6°C (33.1°F)
Wind chill-4.5°C (23.9°F)
Dew point-7.2°C (19.0°F)
Winds 11 kts (5.7 m/s, 12.7 mph) Southwest (220°)
Wind gusts 20 kts (10.3 m/s, 23 mph)
Visibility10 mi. (16.1 km)
Clouds Few clouds 25,000 ft. (7,620 m)
Altimeter29.98 in.Hg (1015 mB)
Relative humidity56 %
Density altitude-1,789 ft. (-545 m)
Sea-level pressure101.6 kPa (1016 mB, 30.00 in.Hg)
Remarks System requires maintenance
Automated weather observing station with precipitation discriminator
Flight conditions Visual Meteorological Conditions
Raw dataKORD 050451Z 22011G20KT 10SM FEW250 01/M07 A2998 RMK AO2 SLP159 T00061072 $
An error has occurred. This application may no longer respond until reloaded. Reload 🗙